sensor_id;sensor_type;location;lat;lon;timestamp;P1;durP1;ratioP1;P2;durP2;ratioP2
69030;SDS011;56083;48.774;8.942;2023-02-04T00:01:45;6.63;;;5.22;;
69030;SDS011;56083;48.774;8.942;2023-02-04T00:04:11;5.85;;;4.93;;
69030;SDS011;56083;48.774;8.942;2023-02-04T00:06:37;7.38;;;5.22;;
69030;SDS011;56083;48.774;8.942;2023-02-04T00:09:03;6.22;;;4.43;;
69030;SDS011;56083;48.774;8.942;2023-02-04T00:11:29;7.18;;;5.10;;
69030;SDS011;56083;48.774;8.942;2023-02-04T00:13:55;6.60;;;4.90;;
69030;SDS011;56083;48.774;8.942;2023-02-04T00:16:20;7.45;;;5.00;;
69030;SDS011;56083;48.774;8.942;2023-02-04T00:18:46;6.40;;;4.30;;
69030;SDS011;56083;48.774;8.942;2023-02-04T00:21:11;6.30;;;4.40;;
69030;SDS011;56083;48.774;8.942;2023-02-04T00:23:37;6.72;;;4.93;;
69030;SDS011;56083;48.774;8.942;2023-02-04T00:26:03;7.93;;;4.65;;
69030;SDS011;56083;48.774;8.942;2023-02-04T00:28:28;6.40;;;4.70;;
69030;SDS011;56083;48.774;8.942;2023-02-04T00:30:54;5.00;;;3.97;;
69030;SDS011;56083;48.774;8.942;2023-02-04T00:33:20;5.07;;;3.70;;
69030;SDS011;56083;48.774;8.942;2023-02-04T00:35:45;5.15;;;4.10;;
69030;SDS011;56083;48.774;8.942;2023-02-04T00:38:11;5.20;;;4.00;;
69030;SDS011;56083;48.774;8.942;2023-02-04T00:40:40;7.20;;;4.47;;
69030;SDS011;56083;48.774;8.942;2023-02-04T00:43:05;6.75;;;4.70;;
69030;SDS011;56083;48.774;8.942;2023-02-04T00:45:31;8.50;;;4.32;;
69030;SDS011;56083;48.774;8.942;2023-02-04T00:47:57;7.82;;;4.57;;
69030;SDS011;56083;48.774;8.942;2023-02-04T00:50:22;6.68;;;4.72;;
69030;SDS011;56083;48.774;8.942;2023-02-04T00:52:48;5.75;;;4.15;;
69030;SDS011;56083;48.774;8.942;2023-02-04T00:55:14;10.70;;;3.72;;
69030;SDS011;56083;48.774;8.942;2023-02-04T00:57:42;4.05;;;3.40;;
69030;SDS011;56083;48.774;8.942;2023-02-04T01:00:08;5.45;;;3.75;;
69030;SDS011;56083;48.774;8.942;2023-02-04T01:02:35;5.30;;;3.90;;
69030;SDS011;56083;48.774;8.942;2023-02-04T01:05:00;6.38;;;3.75;;
69030;SDS011;56083;48.774;8.942;2023-02-04T01:07:26;7.80;;;4.07;;
69030;SDS011;56083;48.774;8.942;2023-02-04T01:09:52;6.10;;;4.05;;
69030;SDS011;56083;48.774;8.942;2023-02-04T01:12:18;5.47;;;4.28;;
69030;SDS011;56083;48.774;8.942;2023-02-04T01:14:46;6.15;;;3.95;;
69030;SDS011;56083;48.774;8.942;2023-02-04T01:17:12;5.95;;;4.13;;
69030;SDS011;56083;48.774;8.942;2023-02-04T01:19:38;5.72;;;4.28;;
69030;SDS011;56083;48.774;8.942;2023-02-04T01:22:03;5.18;;;3.60;;
69030;SDS011;56083;48.774;8.942;2023-02-04T01:24:29;6.80;;;4.07;;
69030;SDS011;56083;48.774;8.942;2023-02-04T01:26:55;6.40;;;4.70;;
69030;SDS011;56083;48.774;8.942;2023-02-04T01:29:20;8.50;;;5.60;;
69030;SDS011;56083;48.774;8.942;2023-02-04T01:31:46;7.15;;;5.75;;
69030;SDS011;56083;48.774;8.942;2023-02-04T01:34:11;7.30;;;5.30;;
69030;SDS011;56083;48.774;8.942;2023-02-04T01:36:37;8.27;;;6.45;;
69030;SDS011;56083;48.774;8.942;2023-02-04T01:39:02;9.38;;;6.15;;
69030;SDS011;56083;48.774;8.942;2023-02-04T01:41:28;10.35;;;6.72;;
69030;SDS011;56083;48.774;8.942;2023-02-04T01:43:54;10.68;;;6.50;;
69030;SDS011;56083;48.774;8.942;2023-02-04T01:46:19;8.10;;;5.25;;
69030;SDS011;56083;48.774;8.942;2023-02-04T01:48:45;5.97;;;3.90;;
69030;SDS011;56083;48.774;8.942;2023-02-04T01:51:11;5.32;;;2.80;;
69030;SDS011;56083;48.774;8.942;2023-02-04T01:53:40;8.02;;;2.55;;
69030;SDS011;56083;48.774;8.942;2023-02-04T01:56:19;7.45;;;2.65;;
69030;SDS011;56083;48.774;8.942;2023-02-04T01:58:52;6.10;;;1.90;;
69030;SDS011;56083;48.774;8.942;2023-02-04T02:01:32;6.65;;;1.38;;
69030;SDS011;56083;48.774;8.942;2023-02-04T02:04:04;8.60;;;1.50;;
69030;SDS011;56083;48.774;8.942;2023-02-04T02:06:30;5.65;;;1.60;;
69030;SDS011;56083;48.774;8.942;2023-02-04T02:08:56;4.82;;;1.65;;
69030;SDS011;56083;48.774;8.942;2023-02-04T02:11:22;15.55;;;1.95;;
69030;SDS011;56083;48.774;8.942;2023-02-04T02:13:49;8.48;;;1.70;;
69030;SDS011;56083;48.774;8.942;2023-02-04T02:16:15;13.35;;;1.70;;
69030;SDS011;56083;48.774;8.942;2023-02-04T02:18:41;10.70;;;1.80;;
69030;SDS011;56083;48.774;8.942;2023-02-04T02:21:07;10.20;;;1.77;;
69030;SDS011;56083;48.774;8.942;2023-02-04T02:26:24;9.98;;;1.73;;
69030;SDS011;56083;48.774;8.942;2023-02-04T02:28:51;8.65;;;1.50;;
69030;SDS011;56083;48.774;8.942;2023-02-04T02:31:19;8.73;;;1.80;;
69030;SDS011;56083;48.774;8.942;2023-02-04T02:33:45;6.85;;;1.27;;
69030;SDS011;56083;48.774;8.942;2023-02-04T02:36:12;5.70;;;1.50;;
69030;SDS011;56083;48.774;8.942;2023-02-04T02:38:39;4.38;;;1.23;;
69030;SDS011;56083;48.774;8.942;2023-02-04T02:41:05;6.93;;;1.40;;
69030;SDS011;56083;48.774;8.942;2023-02-04T02:43:34;3.63;;;1.42;;
69030;SDS011;56083;48.774;8.942;2023-02-04T02:46:00;5.72;;;1.25;;
69030;SDS011;56083;48.774;8.942;2023-02-04T02:48:26;5.50;;;1.48;;
69030;SDS011;56083;48.774;8.942;2023-02-04T02:50:52;7.18;;;1.75;;
69030;SDS011;56083;48.774;8.942;2023-02-04T02:53:18;7.40;;;1.85;;
69030;SDS011;56083;48.774;8.942;2023-02-04T02:55:45;8.00;;;1.83;;
69030;SDS011;56083;48.774;8.942;2023-02-04T02:58:32;8.77;;;2.38;;
69030;SDS011;56083;48.774;8.942;2023-02-04T03:00:58;6.82;;;2.00;;
69030;SDS011;56083;48.774;8.942;2023-02-04T03:03:30;10.95;;;2.10;;
69030;SDS011;56083;48.774;8.942;2023-02-04T03:05:59;10.15;;;2.10;;
69030;SDS011;56083;48.774;8.942;2023-02-04T03:08:32;11.00;;;2.20;;
69030;SDS011;56083;48.774;8.942;2023-02-04T03:10:59;8.02;;;1.92;;
69030;SDS011;56083;48.774;8.942;2023-02-04T03:13:24;10.82;;;2.10;;
69030;SDS011;56083;48.774;8.942;2023-02-04T03:15:51;13.43;;;2.17;;
69030;SDS011;56083;48.774;8.942;2023-02-04T03:18:17;8.40;;;2.28;;
69030;SDS011;56083;48.774;8.942;2023-02-04T03:20:45;11.40;;;2.20;;
69030;SDS011;56083;48.774;8.942;2023-02-04T03:23:12;14.15;;;2.58;;
69030;SDS011;56083;48.774;8.942;2023-02-04T03:25:37;11.65;;;2.58;;
69030;SDS011;56083;48.774;8.942;2023-02-04T03:28:03;9.57;;;2.70;;
69030;SDS011;56083;48.774;8.942;2023-02-04T03:30:29;10.00;;;2.75;;
69030;SDS011;56083;48.774;8.942;2023-02-04T03:32:55;19.10;;;2.88;;
69030;SDS011;56083;48.774;8.942;2023-02-04T03:35:21;16.20;;;2.90;;
69030;SDS011;56083;48.774;8.942;2023-02-04T03:37:47;13.73;;;3.17;;
69030;SDS011;56083;48.774;8.942;2023-02-04T03:40:13;13.25;;;3.55;;
69030;SDS011;56083;48.774;8.942;2023-02-04T03:42:39;21.75;;;3.97;;
69030;SDS011;56083;48.774;8.942;2023-02-04T03:45:05;17.33;;;3.95;;
69030;SDS011;56083;48.774;8.942;2023-02-04T03:47:31;27.48;;;5.30;;
69030;SDS011;56083;48.774;8.942;2023-02-04T03:49:57;27.27;;;4.88;;
69030;SDS011;56083;48.774;8.942;2023-02-04T03:52:22;31.30;;;4.80;;
69030;SDS011;56083;48.774;8.942;2023-02-04T03:54:48;28.25;;;5.40;;
69030;SDS011;56083;48.774;8.942;2023-02-04T03:57:13;21.38;;;5.30;;
69030;SDS011;56083;48.774;8.942;2023-02-04T03:59:42;26.00;;;5.13;;
69030;SDS011;56083;48.774;8.942;2023-02-04T04:02:08;26.85;;;5.00;;
69030;SDS011;56083;48.774;8.942;2023-02-04T04:04:33;36.17;;;5.63;;
69030;SDS011;56083;48.774;8.942;2023-02-04T04:06:59;34.10;;;5.70;;
69030;SDS011;56083;48.774;8.942;2023-02-04T04:09:25;20.10;;;4.72;;
69030;SDS011;56083;48.774;8.942;2023-02-04T04:11:50;21.30;;;4.82;;
69030;SDS011;56083;48.774;8.942;2023-02-04T04:14:16;20.83;;;4.78;;
69030;SDS011;56083;48.774;8.942;2023-02-04T04:16:41;19.25;;;4.95;;
69030;SDS011;56083;48.774;8.942;2023-02-04T04:19:07;23.65;;;4.95;;
69030;SDS011;56083;48.774;8.942;2023-02-04T04:21:33;23.90;;;5.13;;
69030;SDS011;56083;48.774;8.942;2023-02-04T04:23:58;17.00;;;4.55;;
69030;SDS011;56083;48.774;8.942;2023-02-04T04:26:24;18.48;;;4.93;;
69030;SDS011;56083;48.774;8.942;2023-02-04T04:28:50;15.50;;;5.88;;
69030;SDS011;56083;48.774;8.942;2023-02-04T04:31:15;19.30;;;5.20;;
69030;SDS011;56083;48.774;8.942;2023-02-04T04:33:41;20.85;;;5.03;;
69030;SDS011;56083;48.774;8.942;2023-02-04T04:36:06;20.38;;;4.60;;
69030;SDS011;56083;48.774;8.942;2023-02-04T04:38:32;17.75;;;4.78;;
69030;SDS011;56083;48.774;8.942;2023-02-04T04:43:41;14.07;;;4.78;;
69030;SDS011;56083;48.774;8.942;2023-02-04T04:46:09;14.00;;;4.30;;
69030;SDS011;56083;48.774;8.942;2023-02-04T04:48:45;15.65;;;4.55;;
69030;SDS011;56083;48.774;8.942;2023-02-04T04:51:13;12.52;;;4.32;;
69030;SDS011;56083;48.774;8.942;2023-02-04T04:53:39;14.02;;;4.60;;
69030;SDS011;56083;48.774;8.942;2023-02-04T04:59:26;12.80;;;4.78;;
69030;SDS011;56083;48.774;8.942;2023-02-04T05:01:52;18.98;;;5.00;;
69030;SDS011;56083;48.774;8.942;2023-02-04T05:04:18;17.85;;;5.30;;
69030;SDS011;56083;48.774;8.942;2023-02-04T05:06:43;14.18;;;5.00;;
69030;SDS011;56083;48.774;8.942;2023-02-04T05:09:09;17.65;;;4.57;;
69030;SDS011;56083;48.774;8.942;2023-02-04T05:11:35;17.58;;;5.45;;
69030;SDS011;56083;48.774;8.942;2023-02-04T05:14:01;18.33;;;4.70;;
69030;SDS011;56083;48.774;8.942;2023-02-04T05:16:26;16.17;;;5.03;;
69030;SDS011;56083;48.774;8.942;2023-02-04T05:18:52;12.00;;;5.05;;
69030;SDS011;56083;48.774;8.942;2023-02-04T05:21:18;14.82;;;4.72;;
69030;SDS011;56083;48.774;8.942;2023-02-04T05:23:43;17.40;;;5.43;;
69030;SDS011;56083;48.774;8.942;2023-02-04T05:26:09;16.70;;;5.78;;
69030;SDS011;56083;48.774;8.942;2023-02-04T05:28:34;17.80;;;5.78;;
69030;SDS011;56083;48.774;8.942;2023-02-04T05:31:01;20.80;;;6.10;;
69030;SDS011;56083;48.774;8.942;2023-02-04T05:33:26;14.43;;;5.88;;
69030;SDS011;56083;48.774;8.942;2023-02-04T05:35:52;20.52;;;6.63;;
69030;SDS011;56083;48.774;8.942;2023-02-04T05:38:18;22.58;;;6.50;;
69030;SDS011;56083;48.774;8.942;2023-02-04T05:40:46;19.65;;;6.15;;
69030;SDS011;56083;48.774;8.942;2023-02-04T05:43:11;21.90;;;6.93;;
69030;SDS011;56083;48.774;8.942;2023-02-04T05:45:37;25.23;;;6.50;;
69030;SDS011;56083;48.774;8.942;2023-02-04T05:48:03;26.33;;;6.80;;
69030;SDS011;56083;48.774;8.942;2023-02-04T05:50:28;25.27;;;6.80;;
69030;SDS011;56083;48.774;8.942;2023-02-04T05:52:54;25.45;;;7.15;;
69030;SDS011;56083;48.774;8.942;2023-02-04T05:55:20;23.48;;;7.40;;
69030;SDS011;56083;48.774;8.942;2023-02-04T05:57:46;31.45;;;8.07;;
69030;SDS011;56083;48.774;8.942;2023-02-04T06:00:11;29.40;;;7.65;;
69030;SDS011;56083;48.774;8.942;2023-02-04T06:02:38;28.38;;;8.70;;
69030;SDS011;56083;48.774;8.942;2023-02-04T06:05:03;29.15;;;8.45;;
69030;SDS011;56083;48.774;8.942;2023-02-04T06:07:29;37.03;;;8.85;;
69030;SDS011;56083;48.774;8.942;2023-02-04T06:09:55;38.72;;;9.52;;
69030;SDS011;56083;48.774;8.942;2023-02-04T06:12:20;31.92;;;9.43;;
69030;SDS011;56083;48.774;8.942;2023-02-04T06:14:46;37.42;;;9.23;;
69030;SDS011;56083;48.774;8.942;2023-02-04T06:17:12;37.55;;;10.07;;
69030;SDS011;56083;48.774;8.942;2023-02-04T06:19:37;39.72;;;10.55;;
69030;SDS011;56083;48.774;8.942;2023-02-04T06:22:03;32.65;;;10.82;;
69030;SDS011;56083;48.774;8.942;2023-02-04T06:24:28;42.55;;;11.15;;
69030;SDS011;56083;48.774;8.942;2023-02-04T06:26:54;47.53;;;12.40;;
69030;SDS011;56083;48.774;8.942;2023-02-04T06:29:20;41.10;;;11.27;;
69030;SDS011;56083;48.774;8.942;2023-02-04T06:31:45;38.95;;;11.00;;
69030;SDS011;56083;48.774;8.942;2023-02-04T06:34:13;32.03;;;10.75;;
69030;SDS011;56083;48.774;8.942;2023-02-04T06:36:39;27.40;;;10.25;;
69030;SDS011;56083;48.774;8.942;2023-02-04T06:39:04;43.70;;;11.60;;
69030;SDS011;56083;48.774;8.942;2023-02-04T06:41:30;43.40;;;12.45;;
69030;SDS011;56083;48.774;8.942;2023-02-04T06:43:55;41.75;;;12.10;;
69030;SDS011;56083;48.774;8.942;2023-02-04T06:46:21;37.40;;;11.98;;
69030;SDS011;56083;48.774;8.942;2023-02-04T06:48:47;46.42;;;11.73;;
69030;SDS011;56083;48.774;8.942;2023-02-04T06:51:12;40.78;;;12.20;;
69030;SDS011;56083;48.774;8.942;2023-02-04T06:53:38;34.72;;;12.60;;
69030;SDS011;56083;48.774;8.942;2023-02-04T06:56:04;37.70;;;12.13;;
69030;SDS011;56083;48.774;8.942;2023-02-04T06:58:30;36.30;;;11.65;;
69030;SDS011;56083;48.774;8.942;2023-02-04T07:00:56;39.35;;;12.15;;
69030;SDS011;56083;48.774;8.942;2023-02-04T07:03:21;43.33;;;12.07;;
69030;SDS011;56083;48.774;8.942;2023-02-04T07:05:47;43.20;;;12.85;;
69030;SDS011;56083;48.774;8.942;2023-02-04T07:08:12;41.95;;;12.60;;
69030;SDS011;56083;48.774;8.942;2023-02-04T07:10:38;48.90;;;13.00;;
69030;SDS011;56083;48.774;8.942;2023-02-04T07:13:04;42.90;;;12.00;;
69030;SDS011;56083;48.774;8.942;2023-02-04T07:15:29;39.20;;;11.63;;
69030;SDS011;56083;48.774;8.942;2023-02-04T07:17:55;44.10;;;11.70;;
69030;SDS011;56083;48.774;8.942;2023-02-04T07:20:21;42.80;;;11.55;;
69030;SDS011;56083;48.774;8.942;2023-02-04T07:22:46;37.60;;;10.55;;
69030;SDS011;56083;48.774;8.942;2023-02-04T07:25:12;37.30;;;10.88;;
69030;SDS011;56083;48.774;8.942;2023-02-04T07:27:40;36.72;;;10.68;;
69030;SDS011;56083;48.774;8.942;2023-02-04T07:30:05;46.40;;;11.63;;
69030;SDS011;56083;48.774;8.942;2023-02-04T07:32:31;36.97;;;11.63;;
69030;SDS011;56083;48.774;8.942;2023-02-04T07:34:58;53.78;;;12.43;;
69030;SDS011;56083;48.774;8.942;2023-02-04T07:37:24;51.67;;;11.77;;
69030;SDS011;56083;48.774;8.942;2023-02-04T07:39:49;44.53;;;12.88;;
69030;SDS011;56083;48.774;8.942;2023-02-04T07:42:15;43.28;;;11.57;;
69030;SDS011;56083;48.774;8.942;2023-02-04T07:44:41;40.58;;;11.13;;
69030;SDS011;56083;48.774;8.942;2023-02-04T07:47:06;35.80;;;10.38;;
69030;SDS011;56083;48.774;8.942;2023-02-04T07:49:32;41.05;;;10.90;;
69030;SDS011;56083;48.774;8.942;2023-02-04T07:51:58;37.67;;;10.50;;
69030;SDS011;56083;48.774;8.942;2023-02-04T07:54:23;33.78;;;10.43;;
69030;SDS011;56083;48.774;8.942;2023-02-04T07:56:49;32.50;;;10.57;;
69030;SDS011;56083;48.774;8.942;2023-02-04T07:59:14;44.20;;;12.02;;
69030;SDS011;56083;48.774;8.942;2023-02-04T08:01:40;39.15;;;12.25;;
69030;SDS011;56083;48.774;8.942;2023-02-04T08:04:06;41.42;;;12.80;;
69030;SDS011;56083;48.774;8.942;2023-02-04T08:06:31;43.03;;;12.43;;
69030;SDS011;56083;48.774;8.942;2023-02-04T08:08:57;38.40;;;11.23;;
69030;SDS011;56083;48.774;8.942;2023-02-04T08:11:22;31.75;;;10.32;;
69030;SDS011;56083;48.774;8.942;2023-02-04T08:13:48;35.50;;;10.65;;
69030;SDS011;56083;48.774;8.942;2023-02-04T08:16:14;33.65;;;10.05;;
69030;SDS011;56083;48.774;8.942;2023-02-04T08:18:39;43.17;;;10.45;;
69030;SDS011;56083;48.774;8.942;2023-02-04T08:21:05;34.05;;;9.88;;
69030;SDS011;56083;48.774;8.942;2023-02-04T08:23:31;35.53;;;10.20;;
69030;SDS011;56083;48.774;8.942;2023-02-04T08:25:57;28.92;;;9.32;;
69030;SDS011;56083;48.774;8.942;2023-02-04T08:28:23;32.05;;;9.43;;
69030;SDS011;56083;48.774;8.942;2023-02-04T08:30:49;34.67;;;9.13;;
69030;SDS011;56083;48.774;8.942;2023-02-04T08:33:15;37.83;;;8.98;;
69030;SDS011;56083;48.774;8.942;2023-02-04T08:35:40;34.70;;;9.38;;
69030;SDS011;56083;48.774;8.942;2023-02-04T08:38:06;30.85;;;8.82;;
69030;SDS011;56083;48.774;8.942;2023-02-04T08:40:32;35.28;;;7.95;;
69030;SDS011;56083;48.774;8.942;2023-02-04T08:42:57;28.30;;;7.80;;
69030;SDS011;56083;48.774;8.942;2023-02-04T08:45:23;36.38;;;7.93;;
69030;SDS011;56083;48.774;8.942;2023-02-04T08:47:48;31.25;;;7.78;;
69030;SDS011;56083;48.774;8.942;2023-02-04T08:50:14;24.98;;;7.32;;
69030;SDS011;56083;48.774;8.942;2023-02-04T08:52:40;29.35;;;6.75;;
69030;SDS011;56083;48.774;8.942;2023-02-04T08:55:05;21.20;;;6.78;;
69030;SDS011;56083;48.774;8.942;2023-02-04T08:57:31;26.33;;;6.40;;
69030;SDS011;56083;48.774;8.942;2023-02-04T08:59:58;20.73;;;6.15;;
69030;SDS011;56083;48.774;8.942;2023-02-04T09:02:24;25.95;;;5.55;;
69030;SDS011;56083;48.774;8.942;2023-02-04T09:04:50;17.65;;;5.45;;
69030;SDS011;56083;48.774;8.942;2023-02-04T09:07:16;23.42;;;5.57;;
69030;SDS011;56083;48.774;8.942;2023-02-04T09:09:41;21.77;;;4.75;;
69030;SDS011;56083;48.774;8.942;2023-02-04T09:12:07;27.00;;;5.97;;
69030;SDS011;56083;48.774;8.942;2023-02-04T09:14:33;22.38;;;5.00;;
69030;SDS011;56083;48.774;8.942;2023-02-04T09:16:58;24.48;;;6.15;;
69030;SDS011;56083;48.774;8.942;2023-02-04T09:19:24;24.88;;;5.43;;
69030;SDS011;56083;48.774;8.942;2023-02-04T09:21:52;19.52;;;4.97;;
69030;SDS011;56083;48.774;8.942;2023-02-04T09:24:18;22.48;;;5.65;;
69030;SDS011;56083;48.774;8.942;2023-02-04T09:26:47;23.00;;;5.05;;
69030;SDS011;56083;48.774;8.942;2023-02-04T09:29:13;22.17;;;4.47;;
69030;SDS011;56083;48.774;8.942;2023-02-04T09:31:38;19.08;;;4.68;;
69030;SDS011;56083;48.774;8.942;2023-02-04T09:34:04;20.83;;;4.10;;
69030;SDS011;56083;48.774;8.942;2023-02-04T09:36:30;21.77;;;4.50;;
69030;SDS011;56083;48.774;8.942;2023-02-04T09:39:01;20.08;;;4.80;;
69030;SDS011;56083;48.774;8.942;2023-02-04T09:41:28;15.48;;;3.72;;
69030;SDS011;56083;48.774;8.942;2023-02-04T09:43:54;23.90;;;5.28;;
69030;SDS011;56083;48.774;8.942;2023-02-04T09:46:21;16.30;;;3.90;;
69030;SDS011;56083;48.774;8.942;2023-02-04T09:48:48;25.40;;;4.85;;
69030;SDS011;56083;48.774;8.942;2023-02-04T09:51:35;22.95;;;4.40;;
69030;SDS011;56083;48.774;8.942;2023-02-04T09:54:03;21.17;;;4.18;;
69030;SDS011;56083;48.774;8.942;2023-02-04T09:56:32;26.20;;;4.82;;
69030;SDS011;56083;48.774;8.942;2023-02-04T09:58:58;22.25;;;4.75;;
69030;SDS011;56083;48.774;8.942;2023-02-04T10:01:25;29.17;;;4.78;;
69030;SDS011;56083;48.774;8.942;2023-02-04T10:03:52;26.85;;;5.38;;
69030;SDS011;56083;48.774;8.942;2023-02-04T10:06:22;26.27;;;4.30;;
69030;SDS011;56083;48.774;8.942;2023-02-04T10:08:48;21.75;;;4.40;;
69030;SDS011;56083;48.774;8.942;2023-02-04T10:11:15;28.20;;;4.05;;
69030;SDS011;56083;48.774;8.942;2023-02-04T10:13:47;27.27;;;4.30;;
69030;SDS011;56083;48.774;8.942;2023-02-04T10:16:16;27.98;;;3.53;;
69030;SDS011;56083;48.774;8.942;2023-02-04T10:18:45;20.92;;;3.42;;
69030;SDS011;56083;48.774;8.942;2023-02-04T10:21:20;27.67;;;4.15;;
69030;SDS011;56083;48.774;8.942;2023-02-04T10:23:59;25.58;;;3.63;;
69030;SDS011;56083;48.774;8.942;2023-02-04T10:26:27;21.40;;;3.38;;
69030;SDS011;56083;48.774;8.942;2023-02-04T10:28:59;22.58;;;3.75;;
69030;SDS011;56083;48.774;8.942;2023-02-04T10:31:33;24.38;;;4.05;;
69030;SDS011;56083;48.774;8.942;2023-02-04T10:34:11;22.30;;;3.83;;
69030;SDS011;56083;48.774;8.942;2023-02-04T10:36:46;26.45;;;5.30;;
69030;SDS011;56083;48.774;8.942;2023-02-04T10:39:23;27.52;;;3.88;;
69030;SDS011;56083;48.774;8.942;2023-02-04T10:41:51;27.98;;;4.57;;
69030;SDS011;56083;48.774;8.942;2023-02-04T10:44:19;22.52;;;4.38;;
69030;SDS011;56083;48.774;8.942;2023-02-04T10:47:03;20.23;;;4.05;;
69030;SDS011;56083;48.774;8.942;2023-02-04T10:49:31;24.73;;;3.85;;
69030;SDS011;56083;48.774;8.942;2023-02-04T10:51:57;16.75;;;3.90;;
69030;SDS011;56083;48.774;8.942;2023-02-04T10:54:25;27.05;;;4.30;;
69030;SDS011;56083;48.774;8.942;2023-02-04T10:59:23;17.92;;;3.13;;
69030;SDS011;56083;48.774;8.942;2023-02-04T11:01:54;17.77;;;3.10;;
69030;SDS011;56083;48.774;8.942;2023-02-04T11:04:21;23.17;;;3.25;;
69030;SDS011;56083;48.774;8.942;2023-02-04T11:06:46;20.73;;;3.55;;
69030;SDS011;56083;48.774;8.942;2023-02-04T11:09:13;17.92;;;3.30;;
69030;SDS011;56083;48.774;8.942;2023-02-04T11:11:43;18.08;;;3.20;;
69030;SDS011;56083;48.774;8.942;2023-02-04T11:16:53;17.85;;;3.78;;
69030;SDS011;56083;48.774;8.942;2023-02-04T11:19:31;14.63;;;3.05;;
69030;SDS011;56083;48.774;8.942;2023-02-04T11:22:19;17.15;;;2.90;;
69030;SDS011;56083;48.774;8.942;2023-02-04T11:24:49;13.32;;;2.78;;
69030;SDS011;56083;48.774;8.942;2023-02-04T11:27:22;20.60;;;3.42;;
69030;SDS011;56083;48.774;8.942;2023-02-04T11:29:50;34.88;;;6.97;;
69030;SDS011;56083;48.774;8.942;2023-02-04T11:32:33;18.58;;;3.30;;
69030;SDS011;56083;48.774;8.942;2023-02-04T11:35:22;24.75;;;3.30;;
69030;SDS011;56083;48.774;8.942;2023-02-04T11:37:49;19.80;;;3.63;;
69030;SDS011;56083;48.774;8.942;2023-02-04T11:40:25;17.80;;;3.42;;
69030;SDS011;56083;48.774;8.942;2023-02-04T11:48:28;22.92;;;3.42;;
69030;SDS011;56083;48.774;8.942;2023-02-04T11:50:59;19.45;;;3.53;;
69030;SDS011;56083;48.774;8.942;2023-02-04T11:53:30;18.63;;;2.63;;
69030;SDS011;56083;48.774;8.942;2023-02-04T11:55:57;18.27;;;2.97;;
69030;SDS011;56083;48.774;8.942;2023-02-04T11:58:23;21.98;;;2.97;;
69030;SDS011;56083;48.774;8.942;2023-02-04T12:00:50;18.38;;;2.75;;
69030;SDS011;56083;48.774;8.942;2023-02-04T12:05:55;15.82;;;3.00;;
69030;SDS011;56083;48.774;8.942;2023-02-04T12:10:49;17.67;;;3.00;;
69030;SDS011;56083;48.774;8.942;2023-02-04T12:13:26;18.45;;;2.92;;
69030;SDS011;56083;48.774;8.942;2023-02-04T12:15:54;17.45;;;3.13;;
69030;SDS011;56083;48.774;8.942;2023-02-04T12:18:26;21.73;;;3.00;;
69030;SDS011;56083;48.774;8.942;2023-02-04T12:20:53;19.50;;;3.40;;
69030;SDS011;56083;48.774;8.942;2023-02-04T12:23:20;20.00;;;3.00;;
69030;SDS011;56083;48.774;8.942;2023-02-04T12:25:47;15.30;;;3.58;;
69030;SDS011;56083;48.774;8.942;2023-02-04T12:28:13;14.85;;;2.90;;
69030;SDS011;56083;48.774;8.942;2023-02-04T12:30:39;23.13;;;4.40;;
69030;SDS011;56083;48.774;8.942;2023-02-04T12:33:05;15.45;;;2.90;;
69030;SDS011;56083;48.774;8.942;2023-02-04T12:35:31;13.40;;;2.10;;
69030;SDS011;56083;48.774;8.942;2023-02-04T12:37:57;16.30;;;2.97;;
69030;SDS011;56083;48.774;8.942;2023-02-04T12:40:23;16.65;;;2.65;;
69030;SDS011;56083;48.774;8.942;2023-02-04T12:42:49;13.65;;;2.30;;
69030;SDS011;56083;48.774;8.942;2023-02-04T12:45:15;15.88;;;2.40;;
69030;SDS011;56083;48.774;8.942;2023-02-04T12:47:41;16.40;;;2.75;;
69030;SDS011;56083;48.774;8.942;2023-02-04T12:50:08;16.77;;;3.28;;
69030;SDS011;56083;48.774;8.942;2023-02-04T12:52:35;20.05;;;3.08;;
69030;SDS011;56083;48.774;8.942;2023-02-04T12:55:03;13.40;;;2.17;;
69030;SDS011;56083;48.774;8.942;2023-02-04T12:57:30;12.73;;;2.17;;
69030;SDS011;56083;48.774;8.942;2023-02-04T12:59:56;14.25;;;2.40;;
69030;SDS011;56083;48.774;8.942;2023-02-04T13:02:24;15.57;;;2.95;;
69030;SDS011;56083;48.774;8.942;2023-02-04T13:04:50;10.30;;;2.25;;
69030;SDS011;56083;48.774;8.942;2023-02-04T13:07:16;9.80;;;1.85;;
69030;SDS011;56083;48.774;8.942;2023-02-04T13:09:42;11.65;;;2.13;;
69030;SDS011;56083;48.774;8.942;2023-02-04T13:12:09;10.25;;;2.22;;
69030;SDS011;56083;48.774;8.942;2023-02-04T13:14:37;13.38;;;2.35;;
69030;SDS011;56083;48.774;8.942;2023-02-04T13:17:04;13.85;;;3.03;;
69030;SDS011;56083;48.774;8.942;2023-02-04T13:19:30;12.98;;;2.45;;
69030;SDS011;56083;48.774;8.942;2023-02-04T13:21:56;12.43;;;2.50;;
69030;SDS011;56083;48.774;8.942;2023-02-04T13:24:22;11.98;;;2.78;;
69030;SDS011;56083;48.774;8.942;2023-02-04T13:26:48;9.75;;;2.42;;
69030;SDS011;56083;48.774;8.942;2023-02-04T13:29:14;14.13;;;2.90;;
69030;SDS011;56083;48.774;8.942;2023-02-04T13:31:40;11.50;;;2.47;;
69030;SDS011;56083;48.774;8.942;2023-02-04T13:34:05;10.93;;;2.33;;
69030;SDS011;56083;48.774;8.942;2023-02-04T13:36:32;12.38;;;2.38;;
69030;SDS011;56083;48.774;8.942;2023-02-04T13:38:57;14.98;;;2.55;;
69030;SDS011;56083;48.774;8.942;2023-02-04T13:41:25;14.55;;;2.70;;
69030;SDS011;56083;48.774;8.942;2023-02-04T13:43:54;13.25;;;2.85;;
69030;SDS011;56083;48.774;8.942;2023-02-04T13:46:21;20.40;;;6.43;;
69030;SDS011;56083;48.774;8.942;2023-02-04T13:48:47;23.17;;;5.78;;
69030;SDS011;56083;48.774;8.942;2023-02-04T13:51:14;15.70;;;3.20;;
69030;SDS011;56083;48.774;8.942;2023-02-04T13:53:40;14.63;;;3.67;;
69030;SDS011;56083;48.774;8.942;2023-02-04T13:56:05;10.85;;;2.40;;
69030;SDS011;56083;48.774;8.942;2023-02-04T13:58:31;10.55;;;2.38;;
69030;SDS011;56083;48.774;8.942;2023-02-04T14:00:57;10.82;;;2.47;;
69030;SDS011;56083;48.774;8.942;2023-02-04T14:03:23;15.02;;;2.60;;
69030;SDS011;56083;48.774;8.942;2023-02-04T14:05:49;11.63;;;2.40;;
69030;SDS011;56083;48.774;8.942;2023-02-04T14:08:15;9.45;;;2.20;;
69030;SDS011;56083;48.774;8.942;2023-02-04T14:10:40;10.27;;;2.20;;
69030;SDS011;56083;48.774;8.942;2023-02-04T14:13:06;10.80;;;2.10;;
69030;SDS011;56083;48.774;8.942;2023-02-04T14:15:32;12.95;;;2.72;;
69030;SDS011;56083;48.774;8.942;2023-02-04T14:18:01;12.35;;;2.60;;
69030;SDS011;56083;48.774;8.942;2023-02-04T14:20:28;9.85;;;2.72;;
69030;SDS011;56083;48.774;8.942;2023-02-04T14:22:54;9.32;;;2.60;;
69030;SDS011;56083;48.774;8.942;2023-02-04T14:25:20;14.55;;;2.60;;
69030;SDS011;56083;48.774;8.942;2023-02-04T14:27:46;12.77;;;3.17;;
69030;SDS011;56083;48.774;8.942;2023-02-04T14:30:16;17.85;;;3.70;;
69030;SDS011;56083;48.774;8.942;2023-02-04T14:32:42;18.27;;;3.78;;
69030;SDS011;56083;48.774;8.942;2023-02-04T14:35:07;21.27;;;3.50;;
69030;SDS011;56083;48.774;8.942;2023-02-04T14:37:33;27.20;;;4.10;;
69030;SDS011;56083;48.774;8.942;2023-02-04T14:39:58;26.20;;;4.40;;
69030;SDS011;56083;48.774;8.942;2023-02-04T14:42:24;30.38;;;4.13;;
69030;SDS011;56083;48.774;8.942;2023-02-04T14:44:50;20.88;;;3.75;;
69030;SDS011;56083;48.774;8.942;2023-02-04T14:47:15;25.10;;;3.92;;
69030;SDS011;56083;48.774;8.942;2023-02-04T14:49:41;21.08;;;3.90;;
69030;SDS011;56083;48.774;8.942;2023-02-04T14:52:06;16.60;;;2.85;;
69030;SDS011;56083;48.774;8.942;2023-02-04T14:54:32;24.80;;;3.83;;
69030;SDS011;56083;48.774;8.942;2023-02-04T14:56:58;24.15;;;3.97;;
69030;SDS011;56083;48.774;8.942;2023-02-04T14:59:23;20.23;;;3.40;;